Time;durP1;ratioP1;P1;durP2;ratioP2;P2;SDS_P1;SDS_P2;PMS_P1;PMS_P2;Temp;Humidity;BMP_temperature;BMP_pressure;BME280_temperature;BME280_humidity;BME280_pressure;Samples;Min_cycle;Max_cycle;Signal;HPM_P1;HPM_P2
2022/08/06 00:02:02;;;;;;;4.03;1.20;;;14.80;99.90;;;;;;7394763;19;20030;-86
2022/08/06 00:04:28;;;;;;;3.17;0.90;;;14.70;99.90;;;;;;7399594;19;20121;-87
2022/08/06 00:06:54;;;;;;;7.63;1.33;;;14.60;99.90;;;;;;7400698;19;20014;-86
2022/08/06 00:09:20;;;;;;;4.30;1.10;;;14.60;99.90;;;;;;7397403;19;20021;-85
2022/08/06 00:11:45;;;;;;;4.25;1.00;;;14.60;99.90;;;;;;7397188;19;20039;-86
2022/08/06 00:14:11;;;;;;;4.30;0.95;;;14.50;99.90;;;;;;7396826;19;20483;-86
2022/08/06 00:16:37;;;;;;;5.10;1.20;;;14.50;99.90;;;;;;7400922;19;20018;-87
2022/08/06 00:19:03;;;;;;;4.93;1.20;;;14.40;99.90;;;;;;7398618;19;20463;-86
2022/08/06 00:21:30;;;;;;;2.08;0.85;;;14.40;99.90;;;;;;7398994;19;20087;-87
2022/08/06 00:23:56;;;;;;;3.70;1.38;;;14.40;99.90;;;;;;7397183;19;20015;-87
2022/08/06 00:26:24;;;;;;;3.97;1.30;;;14.40;99.90;;;;;;7398975;19;20019;-86
2022/08/06 00:28:50;;;;;;;5.95;1.83;;;14.30;99.90;;;;;;7397452;19;20038;-87
2022/08/06 00:31:16;;;;;;;4.40;1.45;;;14.30;99.90;;;;;;7397074;19;20018;-86
2022/08/06 00:33:46;;;;;;;4.20;1.40;;;14.20;99.90;;;;;;7398422;19;20018;-86
2022/08/06 00:36:12;;;;;;;2.15;1.30;;;14.20;99.90;;;;;;7397970;19;20018;-87
2022/08/06 00:38:37;;;;;;;4.47;1.20;;;14.20;99.90;;;;;;7398594;19;20010;-87
2022/08/06 00:41:03;;;;;;;3.58;1.10;;;14.10;99.90;;;;;;7393944;19;20018;-85
2022/08/06 00:43:29;;;;;;;3.72;1.38;;;14.20;99.90;;;;;;7397475;19;20019;-86
2022/08/06 00:45:55;;;;;;;3.78;1.23;;;14.20;99.90;;;;;;7395550;19;20023;-86
2022/08/06 00:48:21;;;;;;;4.78;1.40;;;14.10;99.90;;;;;;7398755;19;20376;-86
2022/08/06 00:50:47;;;;;;;2.30;1.10;;;14.00;99.90;;;;;;7395604;19;20022;-87
2022/08/06 00:53:13;;;;;;;3.63;1.23;;;14.10;99.90;;;;;;7394893;19;20070;-88
2022/08/06 00:55:39;;;;;;;3.42;1.30;;;14.00;99.90;;;;;;7393965;19;20074;-88
2022/08/06 00:58:05;;;;;;;2.85;1.38;;;13.90;99.90;;;;;;7395425;19;20017;-88
2022/08/06 01:00:33;;;;;;;3.70;1.50;;;13.90;99.90;;;;;;7395035;19;20014;-88
2022/08/06 01:02:58;;;;;;;3.60;1.50;;;13.80;99.90;;;;;;7394651;19;20021;-89
2022/08/06 01:05:24;;;;;;;2.58;1.45;;;13.70;99.90;;;;;;7396758;19;20010;-88
2022/08/06 01:07:50;;;;;;;3.80;1.27;;;13.70;99.90;;;;;;7395523;19;20011;-88
2022/08/06 01:10:16;;;;;;;4.25;1.45;;;13.70;99.90;;;;;;7395389;19;20085;-87
2022/08/06 01:12:42;;;;;;;3.78;1.38;;;13.60;99.90;;;;;;7391699;19;20394;-89
2022/08/06 01:15:08;;;;;;;3.95;2.05;;;13.50;99.90;;;;;;7396768;19;20482;-87
2022/08/06 01:17:46;;;;;;;3.42;1.45;;;13.50;99.90;;;;;;7398183;19;20014;-87
2022/08/06 01:20:33;;;;;;;3.38;2.70;;;13.50;99.90;;;;;;7394597;19;20018;-88
2022/08/06 01:23:37;;;;;;;5.43;1.42;;;13.40;99.90;;;;;;7396356;19;20020;-88
2022/08/06 01:26:26;;;;;;;6.32;5.70;;;13.40;99.90;;;;;;7395995;19;20022;-88
2022/08/06 01:29:11;;;;;;;1.80;1.00;;;13.30;99.90;;;;;;7395605;19;20502;-89
2022/08/06 01:31:44;;;;;;;3.50;1.20;;;13.40;99.90;;;;;;7391670;19;20024;-87
2022/08/06 01:34:18;;;;;;;2.50;1.42;;;13.40;99.90;;;;;;7396216;19;20583;-89
2022/08/06 01:36:49;;;;;;;3.70;1.10;;;13.40;99.90;;;;;;7395917;19;20011;-89
2022/08/06 01:39:18;;;;;;;2.35;1.05;;;13.50;99.90;;;;;;7393200;19;20509;-89
2022/08/06 01:41:48;;;;;;;4.35;1.05;;;13.50;99.90;;;;;;7396008;19;20015;-89
2022/08/06 01:44:17;;;;;;;3.17;1.02;;;13.50;99.90;;;;;;7394581;19;20093;-89
2022/08/06 01:46:55;;;;;;;5.50;1.23;;;13.50;99.90;;;;;;7394452;19;20018;-89
2022/08/06 01:49:26;;;;;;;5.55;1.38;;;13.50;99.90;;;;;;7395583;19;20015;-88
2022/08/06 01:51:56;;;;;;;3.55;1.25;;;13.40;99.90;;;;;;7392997;19;20022;-89
2022/08/06 01:54:23;;;;;;;4.35;1.20;;;13.40;99.90;;;;;;7394370;19;20022;-89
2022/08/06 01:56:52;;;;;;;3.35;1.10;;;13.30;99.90;;;;;;7394319;19;20010;-89
2022/08/06 01:59:22;;;;;;;2.33;1.17;;;13.30;99.90;;;;;;7395916;19;20018;-89
2022/08/06 02:01:53;;;;;;;5.85;4.75;;;13.20;99.90;;;;;;7394101;19;20022;-88
2022/08/06 02:04:23;;;;;;;3.80;2.45;;;13.20;99.90;;;;;;7401994;19;20472;-85
2022/08/06 02:06:50;;;;;;;3.08;1.10;;;13.10;99.90;;;;;;7401046;19;20014;-86
2022/08/06 02:09:22;;;;;;;3.13;1.77;;;13.20;99.90;;;;;;7391144;19;20025;-89
2022/08/06 02:12:09;;;;;;;3.13;1.10;;;13.10;99.90;;;;;;7391266;19;20015;-89
2022/08/06 02:14:40;;;;;;;3.55;3.05;;;13.10;99.90;;;;;;7393859;19;20032;-88
2022/08/06 02:17:07;;;;;;;3.25;2.25;;;13.00;99.90;;;;;;7396215;19;20022;-89
2022/08/06 02:19:34;;;;;;;2.90;1.60;;;13.00;99.90;;;;;;7394864;19;20403;-89
2022/08/06 02:22:03;;;;;;;2.97;1.30;;;12.90;99.90;;;;;;7394475;19;20018;-89
2022/08/06 02:24:31;;;;;;;2.83;0.82;;;12.90;99.90;;;;;;7397672;19;20031;-89
2022/08/06 02:27:00;;;;;;;2.65;0.90;;;13.00;99.90;;;;;;7398060;19;20018;-89
2022/08/06 02:29:27;;;;;;;3.70;1.23;;;12.90;99.90;;;;;;7403236;19;20086;-89
2022/08/06 02:31:54;;;;;;;2.35;0.80;;;12.90;99.90;;;;;;7400266;19;20361;-88
2022/08/06 02:34:21;;;;;;;2.03;1.20;;;12.90;99.90;;;;;;7401227;19;20026;-89
2022/08/06 02:36:59;;;;;;;4.45;1.10;;;12.90;99.90;;;;;;7404292;19;20007;-89
2022/08/06 02:39:31;;;;;;;3.38;1.27;;;12.80;99.90;;;;;;7400055;19;20026;-89
2022/08/06 02:42:26;;;;;;;3.33;1.33;;;12.80;99.90;;;;;;7400558;19;20007;-89
2022/08/06 02:44:58;;;;;;;3.00;1.75;;;12.80;99.90;;;;;;7399828;19;20014;-89
2022/08/06 02:47:51;;;;;;;1.55;1.02;;;12.70;99.90;;;;;;7403044;19;20022;-89
2022/08/06 02:50:24;;;;;;;1.83;1.27;;;12.70;99.90;;;;;;7399175;19;20010;-89
2022/08/06 02:53:17;;;;;;;4.80;1.65;;;12.70;99.90;;;;;;7402681;19;20046;-89
2022/08/06 02:55:45;;;;;;;;;;;12.70;99.90;;;;;;7400473;19;20028;-89
2022/08/06 02:58:22;;;;;;;3.65;3.30;;;12.70;99.90;;;;;;7401735;19;19931;-89
2022/08/06 03:00:52;;;;;;;3.00;1.00;;;12.70;99.90;;;;;;7400604;19;20019;-89
2022/08/06 03:03:22;;;;;;;6.82;2.88;;;12.70;99.90;;;;;;7401256;19;20022;-89
2022/08/06 03:05:50;;;;;;;3.28;1.90;;;12.70;99.90;;;;;;7401150;19;20014;-89
2022/08/06 03:08:21;;;;;;;4.18;1.00;;;12.70;99.90;;;;;;7399319;19;20015;-90
2022/08/06 03:10:49;;;;;;;4.05;1.88;;;12.70;99.90;;;;;;7402909;19;20102;-89
2022/08/06 03:13:17;;;;;;;3.92;1.35;;;12.70;99.90;;;;;;7399259;19;20022;-89
2022/08/06 03:15:44;;;;;;;2.42;1.08;;;12.70;99.90;;;;;;7397828;19;20018;-89
2022/08/06 03:18:12;;;;;;;4.20;1.10;;;12.60;99.90;;;;;;7400058;19;20011;-89
2022/08/06 03:20:40;;;;;;;2.28;1.08;;;12.60;99.90;;;;;;7398803;19;20010;-89
2022/08/06 03:23:11;;;;;;;4.32;1.10;;;12.60;99.90;;;;;;7398577;19;20352;-88
2022/08/06 03:25:39;;;;;;;3.13;1.15;;;12.60;99.90;;;;;;7397921;19;20550;-89
2022/08/06 03:28:07;;;;;;;3.28;1.20;;;12.50;99.90;;;;;;7397676;19;20024;-89
2022/08/06 03:30:35;;;;;;;4.40;1.40;;;12.50;99.90;;;;;;7398182;19;20030;-88
2022/08/06 03:33:13;;;;;;;4.07;1.13;;;12.50;99.90;;;;;;7397969;19;20011;-89
2022/08/06 03:35:40;;;;;;;3.50;1.20;;;12.50;99.90;;;;;;7397439;19;20025;-89
2022/08/06 03:38:08;;;;;;;2.28;1.75;;;12.40;99.90;;;;;;7398775;19;20672;-89
2022/08/06 03:40:36;;;;;;;2.95;1.13;;;12.40;99.90;;;;;;7398195;19;20011;-89
2022/08/06 03:43:02;;;;;;;2.95;1.30;;;12.40;99.90;;;;;;7398476;19;20014;-89
2022/08/06 03:45:30;;;;;;;2.00;1.38;;;12.40;99.90;;;;;;7399143;19;20022;-89
2022/08/06 03:47:58;;;;;;;4.03;1.58;;;12.40;99.90;;;;;;7399438;19;20019;-89
2022/08/06 03:50:34;;;;;;;3.88;1.90;;;12.30;99.90;;;;;;7399000;19;20035;-88
2022/08/06 03:53:02;;;;;;;6.13;1.67;;;12.30;99.90;;;;;;7398732;19;20029;-88
2022/08/06 03:55:32;;;;;;;4.32;1.52;;;12.30;99.90;;;;;;7398182;19;20018;-89
2022/08/06 03:58:02;;;;;;;3.83;1.63;;;12.30;99.90;;;;;;7399330;19;20021;-87
2022/08/06 04:00:36;;;;;;;9.63;1.90;;;12.30;99.90;;;;;;7404761;19;20048;-86
2022/08/06 04:03:04;;;;;;;2.80;1.60;;;12.30;99.90;;;;;;7400118;19;20006;-88
2022/08/06 04:05:35;;;;;;;5.60;1.77;;;12.30;99.90;;;;;;7399684;19;20019;-89
2022/08/06 04:08:04;;;;;;;3.70;1.60;;;12.30;99.90;;;;;;7400958;19;20046;-88
2022/08/06 04:10:48;;;;;;;3.15;1.20;;;12.30;99.90;;;;;;7397794;19;20027;-88
2022/08/06 04:13:15;;;;;;;4.68;1.45;;;12.30;99.90;;;;;;7395986;19;20352;-89
2022/08/06 04:15:42;;;;;;;4.47;1.90;;;12.30;99.90;;;;;;7399011;19;20019;-89
2022/08/06 04:18:14;;;;;;;5.68;1.80;;;12.30;99.90;;;;;;7397756;19;20027;-89
2022/08/06 04:20:43;;;;;;;4.68;1.60;;;12.30;99.90;;;;;;7396398;19;20014;-89
2022/08/06 04:23:09;;;;;;;2.38;1.65;;;12.30;99.90;;;;;;7397317;19;20045;-89
2022/08/06 04:25:43;;;;;;;3.28;1.90;;;12.20;99.90;;;;;;7394931;19;20017;-91
2022/08/06 04:28:12;;;;;;;5.13;2.00;;;12.30;99.90;;;;;;7397401;19;20483;-88
2022/08/06 04:30:39;;;;;;;4.03;2.00;;;12.30;99.90;;;;;;7394920;19;20082;-84
2022/08/06 04:33:09;;;;;;;4.93;2.30;;;12.40;99.90;;;;;;7393491;19;20483;-83
2022/08/06 04:35:38;;;;;;;4.28;2.00;;;12.40;99.90;;;;;;7397297;19;20493;-83
2022/08/06 04:38:05;;;;;;;4.32;1.85;;;12.30;99.90;;;;;;7398324;19;20014;-83
2022/08/06 04:40:31;;;;;;;5.15;2.00;;;12.30;99.90;;;;;;7395893;19;20022;-83
2022/08/06 04:42:58;;;;;;;6.32;1.85;;;12.30;99.90;;;;;;7400163;19;20029;-83
2022/08/06 04:45:26;;;;;;;3.92;1.92;;;12.40;99.90;;;;;;7395581;19;20015;-83
2022/08/06 04:47:53;;;;;;;2.90;1.63;;;12.40;99.90;;;;;;7398779;19;20023;-84
2022/08/06 04:50:19;;;;;;;3.83;1.60;;;12.40;99.90;;;;;;7395895;19;20550;-83
2022/08/06 04:52:44;;;;;;;3.95;2.15;;;12.50;99.90;;;;;;7398204;19;20027;-84
2022/08/06 04:55:10;;;;;;;6.30;1.90;;;12.50;99.90;;;;;;7393933;19;20014;-83
2022/08/06 04:57:36;;;;;;;4.03;2.13;;;12.50;99.90;;;;;;7395485;19;20379;-83
2022/08/06 05:00:03;;;;;;;3.88;1.70;;;12.60;99.90;;;;;;7399130;19;20010;-83
2022/08/06 05:02:29;;;;;;;4.72;1.58;;;12.60;99.90;;;;;;7394812;19;20014;-83
2022/08/06 05:04:57;;;;;;;4.47;2.08;;;12.70;99.90;;;;;;7396107;19;20014;-83
2022/08/06 05:07:28;;;;;;;4.85;2.00;;;12.80;99.90;;;;;;7394934;19;20014;-84
2022/08/06 05:09:56;;;;;;;3.50;1.70;;;12.80;99.90;;;;;;7394704;19;20031;-83
2022/08/06 05:12:35;;;;;;;4.97;2.10;;;12.90;99.90;;;;;;7393451;19;20014;-83
2022/08/06 05:15:27;;;;;;;5.65;1.60;;;12.80;99.90;;;;;;7395446;19;20019;-84
2022/08/06 05:18:13;;;;;;;4.88;1.50;;;13.00;99.90;;;;;;7397466;19;20007;-83
2022/08/06 05:20:42;;;;;;;2.63;1.10;;;13.30;99.90;;;;;;7395383;19;20364;-83
2022/08/06 05:23:17;;;;;;;2.75;1.50;;;13.30;99.90;;;;;;7394562;19;20014;-83
2022/08/06 05:25:43;;;;;;;3.42;1.38;;;13.40;99.90;;;;;;7395969;19;20010;-83
2022/08/06 05:28:09;;;;;;;3.53;1.30;;;13.40;99.90;;;;;;7395145;19;20018;-83
2022/08/06 05:30:47;;;;;;;6.00;1.70;;;13.50;99.90;;;;;;7394301;19;20019;-83
2022/08/06 05:33:31;;;;;;;3.10;1.42;;;13.60;99.90;;;;;;7391617;19;20023;-84
2022/08/06 05:36:01;;;;;;;3.90;1.52;;;13.70;99.90;;;;;;7396621;19;20025;-83
2022/08/06 05:38:27;;;;;;;2.92;1.23;;;13.70;99.90;;;;;;7389990;19;20014;-83
2022/08/06 05:40:55;;;;;;;3.50;1.50;;;13.80;99.90;;;;;;7388816;19;20028;-83
2022/08/06 05:43:22;;;;;;;2.33;1.15;;;14.00;99.90;;;;;;7393835;19;20022;-83
2022/08/06 05:45:52;;;;;;;2.65;1.10;;;14.10;99.90;;;;;;7391829;19;20022;-83
2022/08/06 05:48:20;;;;;;;4.45;1.25;;;14.30;99.90;;;;;;7393859;19;20030;-83
2022/08/06 05:51:01;;;;;;;1.63;0.50;;;14.40;99.90;;;;;;7393764;19;20018;-83
2022/08/06 05:53:34;;;;;;;5.05;1.30;;;14.60;99.90;;;;;;7395634;19;20021;-82
2022/08/06 05:56:07;;;;;;;1.95;0.90;;;14.80;99.90;;;;;;7395331;19;20070;-83
2022/08/06 05:58:41;;;;;;;;;;;14.90;99.90;;;;;;7395879;19;20014;-83
2022/08/06 06:01:08;;;;;;;3.05;1.02;;;15.20;99.90;;;;;;7394264;19;19915;-83
2022/08/06 06:03:37;;;;;;;2.05;0.75;;;15.20;99.90;;;;;;7394501;19;20526;-83
2022/08/06 06:06:04;;;;;;;2.95;0.70;;;15.30;99.90;;;;;;7391542;19;20034;-84
2022/08/06 06:08:30;;;;;;;2.20;0.68;;;15.40;99.90;;;;;;7395415;19;20022;-83
2022/08/06 06:10:56;;;;;;;2.17;0.60;;;15.50;99.90;;;;;;7392672;19;20010;-83
2022/08/06 06:13:24;;;;;;;2.13;0.80;;;15.60;99.90;;;;;;7396060;19;20024;-83
2022/08/06 06:15:57;;;;;;;2.70;0.50;;;15.70;99.90;;;;;;7393665;19;20708;-83
2022/08/06 06:18:32;;;;;;;2.63;0.80;;;15.80;99.90;;;;;;7394384;19;20021;-83
2022/08/06 06:21:12;;;;;;;1.52;0.60;;;15.80;99.90;;;;;;7393611;19;20080;-83
2022/08/06 06:23:51;;;;;;;2.60;0.77;;;15.80;99.90;;;;;;7394500;19;20024;-83
2022/08/06 06:26:37;;;;;;;2.60;0.70;;;15.90;99.90;;;;;;7393021;19;20497;-84
2022/08/06 06:29:38;;;;;;;3.05;0.63;;;15.90;99.90;;;;;;7392762;19;20071;-84
2022/08/06 06:32:16;;;;;;;3.35;0.80;;;15.80;99.90;;;;;;7390589;19;20082;-83
2022/08/06 06:34:57;;;;;;;2.38;0.70;;;15.80;99.90;;;;;;7392889;19;20015;-83
2022/08/06 06:37:55;;;;;;;1.40;0.73;;;16.00;99.90;;;;;;7392837;19;20025;-83
2022/08/06 06:40:50;;;;;;;2.13;0.63;;;16.50;99.90;;;;;;7393974;19;20048;-83
2022/08/06 06:43:20;;;;;;;2.00;0.50;;;16.50;99.90;;;;;;7389289;19;20089;-83
2022/08/06 06:45:50;;;;;;;2.42;0.68;;;16.50;99.90;;;;;;7394687;19;20015;-84
2022/08/06 06:48:22;;;;;;;2.80;0.60;;;16.60;99.90;;;;;;7391875;19;20017;-83
2022/08/06 06:50:54;;;;;;;2.33;0.63;;;16.70;99.90;;;;;;7389711;19;20021;-83
2022/08/06 06:53:22;;;;;;;2.05;0.60;;;17.00;99.90;;;;;;7394190;19;20014;-83
2022/08/06 06:55:51;;;;;;;2.17;0.60;;;17.10;99.90;;;;;;7391678;19;20022;-83
2022/08/06 06:58:26;;;;;;;1.60;0.60;;;17.40;99.90;;;;;;7390198;19;20416;-84
2022/08/06 07:00:54;;;;;;;2.60;0.57;;;17.50;99.90;;;;;;7388556;19;20034;-83
2022/08/06 07:03:21;;;;;;;1.58;0.40;;;17.80;99.90;;;;;;7388635;19;20038;-83
2022/08/06 07:05:49;;;;;;;2.13;0.80;;;18.80;99.90;;;;;;7389703;19;20086;-83
2022/08/06 07:08:18;;;;;;;1.65;0.65;;;19.90;99.90;;;;;;7389542;19;20026;-83
2022/08/06 07:10:45;;;;;;;1.77;0.70;;;19.90;99.90;;;;;;7397763;19;20010;-83
2022/08/06 07:13:12;;;;;;;3.38;0.60;;;19.50;99.90;;;;;;7400386;19;20044;-83
2022/08/06 07:15:40;;;;;;;2.67;0.40;;;19.30;99.90;;;;;;7399474;19;20013;-82
2022/08/06 07:18:07;;;;;;;2.33;0.93;;;18.80;99.90;;;;;;7396350;19;20392;-83
2022/08/06 07:20:34;;;;;;;1.02;0.50;;;18.50;99.90;;;;;;7401602;19;20019;-83
2022/08/06 07:23:07;;;;;;;2.15;0.40;;;18.50;99.90;;;;;;7396106;19;20106;-83
2022/08/06 07:25:39;;;;;;;1.45;0.40;;;19.30;99.90;;;;;;7396126;19;20029;-82
2022/08/06 07:28:06;;;;;;;2.05;0.57;;;20.50;99.90;;;;;;7399068;19;20018;-83
2022/08/06 07:30:33;;;;;;;1.23;0.32;;;21.50;99.90;;;;;;7397273;19;20041;-84
2022/08/06 07:33:01;;;;;;;4.38;0.47;;;22.60;99.90;;;;;;7396750;19;20018;-79
2022/08/06 07:35:27;;;;;;;4.30;0.47;;;22.40;99.90;;;;;;7398462;19;20014;-79
2022/08/06 07:38:00;;;;;;;41.60;7.97;;;22.20;99.90;;;;;;7398780;19;20408;-84
2022/08/06 07:40:34;;;;;;;1.45;0.55;;;22.20;99.90;;;;;;7396413;19;20038;-81
2022/08/06 07:43:11;;;;;;;7.30;1.10;;;22.40;99.90;;;;;;7396695;19;20019;-81
2022/08/06 07:45:37;;;;;;;2.97;0.60;;;22.40;99.90;;;;;;7389114;19;20107;-82
2022/08/06 07:48:08;;;;;;;11.45;0.95;;;22.20;99.90;;;;;;7396573;19;20015;-81
2022/08/06 07:50:35;;;;;;;8.43;0.60;;;22.10;99.90;;;;;;7393148;19;20022;-84
2022/08/06 07:53:01;;;;;;;1.67;0.50;;;22.60;99.90;;;;;;7400105;19;20042;-82
2022/08/06 07:55:28;;;;;;;3.28;0.60;;;23.20;98.60;;;;;;7396034;19;20478;-82
2022/08/06 07:57:55;;;;;;;2.33;0.60;;;23.50;99.10;;;;;;7396832;19;20029;-83
2022/08/06 08:00:22;;;;;;;2.22;0.70;;;23.60;99.80;;;;;;7398551;19;20026;-83
2022/08/06 08:08:24;;;;;;;4.13;0.70;;;23.80;99.90;;;;;;7396141;19;20363;-81
2022/08/06 08:10:51;;;;;;;3.63;0.82;;;24.10;99.50;;;;;;7393042;19;20036;-86
2022/08/06 08:13:18;;;;;;;1.10;0.45;;;24.20;99.10;;;;;;7393355;19;20019;-84
2022/08/06 08:15:46;;;;;;;2.85;0.70;;;24.20;98.80;;;;;;7397636;19;20486;-83
2022/08/06 08:18:12;;;;;;;2.40;0.60;;;24.30;98.80;;;;;;7395777;19;20018;-82
2022/08/06 08:20:39;;;;;;;2.40;0.52;;;24.00;97.90;;;;;;7392747;19;20010;-81
2022/08/06 08:23:07;;;;;;;2.38;0.45;;;24.20;97.40;;;;;;7393304;19;20018;-81
2022/08/06 08:25:33;;;;;;;2.97;0.60;;;24.20;97.80;;;;;;7396918;19;20018;-81
2022/08/06 08:27:59;;;;;;;1.58;0.50;;;24.10;98.00;;;;;;7395986;19;20031;-84
2022/08/06 08:30:25;;;;;;;3.20;0.60;;;23.50;98.20;;;;;;7395413;19;20018;-86
2022/08/06 08:32:51;;;;;;;4.40;0.70;;;22.60;98.60;;;;;;7393720;19;20102;-86
2022/08/06 08:35:17;;;;;;;1.80;0.60;;;21.50;98.10;;;;;;7394392;19;20029;-86
2022/08/06 08:37:43;;;;;;;1.27;0.50;;;21.70;99.90;;;;;;7389543;19;20093;-85
2022/08/06 08:40:10;;;;;;;2.05;0.68;;;21.10;99.90;;;;;;7393161;19;20018;-84
2022/08/06 08:42:48;;;;;;;1.27;0.68;;;21.60;99.80;;;;;;7377297;19;20122;-85
2022/08/06 08:45:16;;;;;;;3.28;0.70;;;22.40;97.50;;;;;;7397081;19;20035;-84
2022/08/06 08:47:50;;;;;;;2.28;0.50;;;22.00;99.70;;;;;;7395000;19;20007;-84
2022/08/06 08:50:25;;;;;;;3.58;0.70;;;21.90;98.50;;;;;;7396024;19;20410;-84
2022/08/06 08:52:57;;;;;;;2.55;0.57;;;21.10;97.90;;;;;;7392582;19;20518;-85
2022/08/06 08:55:25;;;;;;;2.67;0.50;;;21.00;97.30;;;;;;7397392;19;20074;-85
2022/08/06 08:57:52;;;;;;;3.65;0.68;;;20.90;97.70;;;;;;7396474;19;20342;-84
2022/08/06 09:00:19;;;;;;;1.88;0.68;;;20.10;99.50;;;;;;7396020;19;20396;-84
2022/08/06 09:02:45;;;;;;;2.28;0.60;;;20.10;99.90;;;;;;7397650;19;20019;-85
2022/08/06 09:05:11;;;;;;;2.22;0.63;;;19.70;99.90;;;;;;7391388;19;20486;-84
2022/08/06 09:07:38;;;;;;;2.05;0.50;;;19.80;99.90;;;;;;7388469;19;20014;-84
2022/08/06 09:10:06;;;;;;;2.47;0.80;;;19.70;99.90;;;;;;7395229;19;20033;-85
2022/08/06 09:12:33;;;;;;;2.25;0.77;;;19.20;99.90;;;;;;7392657;19;20014;-85
2022/08/06 09:14:59;;;;;;;3.08;0.63;;;19.20;99.90;;;;;;7394479;19;20028;-85
2022/08/06 09:17:25;;;;;;;2.47;0.70;;;18.90;99.90;;;;;;7393452;19;20691;-84
2022/08/06 09:19:52;;;;;;;3.67;0.70;;;19.20;99.90;;;;;;7393134;19;20486;-84
2022/08/06 09:22:17;;;;;;;1.27;0.55;;;19.50;99.90;;;;;;7394257;19;20007;-84
2022/08/06 09:24:44;;;;;;;2.58;1.00;;;19.70;99.90;;;;;;7396479;19;20014;-84
2022/08/06 09:27:15;;;;;;;3.15;0.63;;;20.00;99.90;;;;;;7394621;19;20471;-83
2022/08/06 09:29:53;;;;;;;1.88;0.57;;;20.40;99.90;;;;;;7398159;19;20022;-83
2022/08/06 09:32:40;;;;;;;1.90;0.73;;;20.90;99.90;;;;;;7391467;19;20361;-84
2022/08/06 09:35:24;;;;;;;1.88;0.60;;;21.20;99.90;;;;;;7392112;19;20018;-84
2022/08/06 09:38:04;;;;;;;3.72;0.80;;;21.60;99.90;;;;;;7395330;19;20096;-84
2022/08/06 09:40:30;;;;;;;2.42;0.77;;;21.50;97.30;;;;;;7393241;19;20042;-85
2022/08/06 09:42:56;;;;;;;3.25;1.33;;;21.70;97.90;;;;;;7394467;19;20035;-85
2022/08/06 09:45:24;;;;;;;2.80;1.20;;;21.50;96.50;;;;;;7393423;19;20010;-85
2022/08/06 09:48:04;;;;;;;2.38;1.10;;;20.80;97.20;;;;;;7393873;19;20011;-85
2022/08/06 09:50:41;;;;;;;2.72;0.85;;;20.40;97.80;;;;;;7395295;19;20029;-85
2022/08/06 09:53:08;;;;;;;2.53;1.10;;;20.00;97.60;;;;;;7393594;19;20019;-84
2022/08/06 09:55:34;;;;;;;4.55;1.27;;;20.30;99.90;;;;;;7393794;19;20022;-84
2022/08/06 09:58:00;;;;;;;4.93;1.20;;;20.00;99.90;;;;;;7396802;19;20034;-84
2022/08/06 10:00:29;;;;;;;4.80;1.30;;;19.90;99.90;;;;;;7393031;19;20018;-85
2022/08/06 10:02:56;;;;;;;5.30;1.40;;;19.80;99.90;;;;;;7393410;19;20034;-83
2022/08/06 10:05:27;;;;;;;4.77;1.20;;;19.50;99.90;;;;;;7392068;19;20011;-84
2022/08/06 10:08:16;;;;;;;2.83;1.00;;;19.30;99.90;;;;;;7392391;19;20100;-84
2022/08/06 10:10:46;;;;;;;4.07;1.27;;;19.60;99.90;;;;;;7390880;19;20380;-84
2022/08/06 10:13:13;;;;;;;4.80;1.65;;;19.40;99.90;;;;;;7385670;19;20025;-88
2022/08/06 10:15:39;;;;;;;4.03;1.40;;;19.20;99.90;;;;;;7387033;19;20022;-87
2022/08/06 10:18:04;;;;;;;2.38;1.33;;;18.80;99.90;;;;;;7390854;19;20014;-87
2022/08/06 10:20:30;;;;;;;2.60;1.40;;;18.40;99.90;;;;;;7387821;19;20015;-87
2022/08/06 10:22:57;;;;;;;3.67;1.30;;;18.20;99.90;;;;;;7390887;19;20023;-86
2022/08/06 10:25:24;;;;;;;3.72;1.40;;;18.40;99.90;;;;;;7394590;19;20006;-84
2022/08/06 10:27:54;;;;;;;3.45;1.27;;;18.50;99.90;;;;;;7390890;19;20591;-84
2022/08/06 10:30:20;;;;;;;4.25;1.30;;;18.30;99.90;;;;;;7393691;19;20007;-83
2022/08/06 10:32:50;;;;;;;3.50;1.20;;;18.50;99.90;;;;;;7389683;19;20010;-86
2022/08/06 10:35:18;;;;;;;5.20;1.30;;;18.30;99.90;;;;;;7393693;19;20010;-84
2022/08/06 10:37:49;;;;;;;5.10;1.63;;;18.70;99.90;;;;;;7395657;19;20022;-85
2022/08/06 10:40:18;;;;;;;2.60;1.10;;;19.10;99.90;;;;;;7391554;19;20018;-86
2022/08/06 10:42:44;;;;;;;4.28;1.52;;;19.60;99.90;;;;;;7392200;19;20022;-87
2022/08/06 10:45:11;;;;;;;2.97;1.55;;;20.10;99.30;;;;;;7393765;19;20014;-85
2022/08/06 10:47:39;;;;;;;3.75;1.38;;;19.90;98.70;;;;;;7403238;19;20410;-84
2022/08/06 10:50:07;;;;;;;4.95;1.40;;;20.30;99.20;;;;;;7399028;19;20021;-84
2022/08/06 10:52:34;;;;;;;4.25;1.05;;;20.60;98.80;;;;;;7395546;19;20024;-84
2022/08/06 10:55:03;;;;;;;4.65;2.22;;;20.70;99.90;;;;;;7397358;19;20358;-84
2022/08/06 10:57:29;;;;;;;3.33;1.63;;;20.80;99.50;;;;;;7396968;19;20015;-83
2022/08/06 10:59:55;;;;;;;2.80;1.52;;;20.60;97.80;;;;;;7396503;19;20081;-85
2022/08/06 11:02:41;;;;;;;4.68;2.20;;;20.60;98.50;;;;;;7394708;19;20019;-85
2022/08/06 11:05:15;;;;;;;2.47;1.50;;;20.90;96.80;;;;;;7398934;19;20010;-85
2022/08/06 11:08:19;;;;;;;2.58;1.50;;;21.00;97.00;;;;;;7399254;19;20483;-86
2022/08/06 11:11:00;;;;;;;4.50;1.70;;;21.50;98.40;;;;;;7392253;19;20015;-87
2022/08/06 11:14:23;;;;;;;2.60;1.35;;;22.00;96.80;;;;;;7397857;19;20021;-85
2022/08/06 11:16:57;;;;;;;3.40;1.75;;;22.00;97.30;;;;;;7393795;19;20018;-81
2022/08/06 11:19:45;;;;;;;5.43;2.35;;;21.60;96.90;;;;;;7393847;19;20657;-81
2022/08/06 11:22:34;;;;;;;2.85;1.95;;;21.40;96.70;;;;;;7398157;19;20014;-82
2022/08/06 11:25:02;;;;;;;3.00;2.10;;;21.50;96.50;;;;;;7395020;19;20023;-83
2022/08/06 11:27:56;;;;;;;3.38;1.90;;;21.60;96.60;;;;;;7397998;19;20030;-83
2022/08/06 11:30:43;;;;;;;2.60;1.92;;;21.50;95.50;;;;;;7397777;19;20018;-82
2022/08/06 11:33:10;;;;;;;4.63;2.40;;;21.60;95.80;;;;;;7397823;19;20018;-83
2022/08/06 11:35:38;;;;;;;3.88;2.22;;;21.80;95.40;;;;;;7394754;19;20038;-82
2022/08/06 11:38:10;;;;;;;2.10;1.80;;;21.70;95.70;;;;;;7399992;19;20018;-83
2022/08/06 11:40:54;;;;;;;;;;;21.90;96.40;;;;;;7399876;19;20105;-82
2022/08/06 11:43:53;;;;;;;2.53;1.98;;;22.10;94.80;;;;;;7396703;19;19970;-83
2022/08/06 11:46:22;;;;;;;3.53;2.30;;;22.30;93.40;;;;;;7396941;19;20015;-81
2022/08/06 11:48:59;;;;;;;4.18;2.30;;;22.20;94.70;;;;;;7397562;19;20019;-86
2022/08/06 11:51:54;;;;;;;4.30;2.47;;;22.50;94.60;;;;;;7392621;19;20054;-83
2022/08/06 11:54:51;;;;;;;5.72;2.90;;;22.10;94.50;;;;;;7396128;19;20021;-83
2022/08/06 11:57:17;;;;;;;4.53;2.75;;;21.60;94.50;;;;;;7396676;19;20102;-85
2022/08/06 12:00:13;;;;;;;5.45;2.75;;;21.40;95.10;;;;;;7397518;19;20086;-84
2022/08/06 12:02:39;;;;;;;3.85;2.92;;;21.70;94.80;;;;;;7398205;19;20014;-85
2022/08/06 12:05:06;;;;;;;5.20;2.88;;;21.90;94.90;;;;;;7395464;19;20344;-85
2022/08/06 12:07:34;;;;;;;4.05;3.05;;;21.80;94.00;;;;;;7397538;19;20041;-85
2022/08/06 12:10:13;;;;;;;5.13;3.25;;;21.50;94.10;;;;;;7396690;19;20494;-84
2022/08/06 12:12:45;;;;;;;5.43;3.20;;;21.40;95.10;;;;;;7393584;19;20025;-84
2022/08/06 12:15:19;;;;;;;4.63;3.35;;;21.40;94.60;;;;;;7398819;19;20018;-84
2022/08/06 12:17:54;;;;;;;4.57;3.55;;;21.80;94.60;;;;;;7396422;19;20023;-84
2022/08/06 12:20:35;;;;;;;5.72;3.50;;;21.70;93.60;;;;;;7397878;19;20011;-84
2022/08/06 12:23:04;;;;;;;5.88;3.85;;;21.10;94.80;;;;;;7390825;19;20506;-83
2022/08/06 12:25:41;;;;;;;5.07;4.10;;;20.60;95.50;;;;;;7395849;19;20010;-83
2022/08/06 12:28:10;;;;;;;4.50;3.47;;;20.50;96.00;;;;;;7394790;19;20011;-83
2022/08/06 12:30:50;;;;;;;5.95;4.00;;;20.50;96.10;;;;;;7395203;19;20514;-84
2022/08/06 12:33:17;;;;;;;4.95;4.07;;;20.30;96.80;;;;;;7391380;19;20015;-84
2022/08/06 12:36:00;;;;;;;4.07;3.63;;;20.20;96.50;;;;;;7394409;19;20498;-87
2022/08/06 12:38:31;;;;;;;4.95;3.70;;;20.10;95.90;;;;;;7397064;19;20025;-85
2022/08/06 12:41:04;;;;;;;5.53;3.88;;;20.30;96.90;;;;;;7396166;19;20014;-86
2022/08/06 12:43:31;;;;;;;6.22;4.32;;;20.70;96.90;;;;;;7397374;19;20011;-85
2022/08/06 12:46:02;;;;;;;4.82;4.28;;;20.90;95.80;;;;;;7396581;19;20359;-85
2022/08/06 12:48:28;;;;;;;5.80;3.75;;;21.00;95.30;;;;;;7398392;19;20483;-85
2022/08/06 12:51:11;;;;;;;4.50;3.60;;;21.50;95.90;;;;;;7395695;19;20014;-87
2022/08/06 12:53:47;;;;;;;3.80;3.40;;;21.60;95.50;;;;;;7395450;19;20031;-84
2022/08/06 12:56:14;;;;;;;4.72;3.55;;;21.50;95.60;;;;;;7388476;19;20466;-85
2022/08/06 12:58:41;;;;;;;5.55;3.85;;;21.30;94.30;;;;;;7396794;19;20017;-85
2022/08/06 13:01:17;;;;;;;6.28;4.10;;;21.30;95.50;;;;;;7395811;19;20017;-84
2022/08/06 13:03:47;;;;;;;4.88;4.40;;;21.50;94.70;;;;;;7396078;19;20022;-84
2022/08/06 13:06:16;;;;;;;5.63;4.43;;;21.00;94.40;;;;;;7394008;19;20032;-83
2022/08/06 13:08:48;;;;;;;5.85;4.28;;;20.70;94.80;;;;;;7390482;19;20437;-83
2022/08/06 13:11:14;;;;;;;6.63;4.30;;;20.60;95.30;;;;;;7394837;19;20026;-84
2022/08/06 13:13:46;;;;;;;6.35;4.40;;;20.40;95.60;;;;;;7398343;19;20294;-84
2022/08/06 13:16:13;;;;;;;5.88;4.93;;;20.10;95.60;;;;;;7394422;19;20508;-86